Thursday, November 23, 2017, 1:22 PM EST
Back to Local

KRKD, Rockland, Knox County Regional Airport

Location: Owls Head, ME, United States Lat: 44.067
Local Time: 1:22 PM EST (18:22 GMT) Lon: -69.1
Time Zone: US/Eastern Elev: 55 ft

Show me the last for .
Show Decoded

2017-11-23 12:56 METAR KRKD 231756Z AUTO 29009KT 10SM CLR 02/M07 A2991 RMK AO2 SLP131 T00221067
                 10022 21022 56016 FZRANO =
2017-11-23 11:56 METAR KRKD 231656Z AUTO 30007KT 10SM CLR 02/M07 A2993 RMK AO2 SLP135 T00171072
                 FZRANO =
2017-11-23 10:56 METAR KRKD 231556Z AUTO 29010G14KT 10SM CLR 01/M07 A2994 RMK AO2 SLP139
                 T00111067 FZRANO =
2017-11-23 09:56 METAR KRKD 231456Z AUTO 28011KT 10SM CLR 00/M07 A2996 RMK AO2 SLP147 T00001067
                 51008 FZRANO =
2017-11-23 08:56 METAR KRKD 231356Z AUTO 29011G17KT 10SM CLR M01/M06 A2996 RMK AO2 SLP147
                 T10061061 FZRANO =
2017-11-23 07:56 METAR KRKD 231256Z AUTO 27007KT 10SM CLR M01/M06 A2996 RMK AO2 SLP149 T10111061
                 FZRANO =
2017-11-23 06:56 METAR KRKD 231156Z AUTO 28009KT 10SM CLR M02/M05 A2993 RMK AO2 SLP139 70086
                 T10221050 10022 21022 53020 FZRANO =
2017-11-23 05:56 METAR KRKD 231056Z AUTO 29005KT 10SM CLR M02/M05 A2991 RMK AO2 SLP130 T10171050
                 FZRANO =
2017-11-23 04:56 METAR KRKD 230956Z AUTO 30005G14KT 10SM CLR M01/M04 A2989 RMK AO2 SLP125
                 T10061044 FZRANO =
2017-11-23 03:56 METAR KRKD 230856Z AUTO 29008G16KT 10SM CLR 00/M04 A2988 RMK AO2 SLP119
                 T00001039 51024 FZRANO =
2017-11-23 02:56 METAR KRKD 230756Z AUTO 30011G15KT 10SM CLR 01/M04 A2985 RMK AO2 SLP111
                 T00111039 FZRANO =
2017-11-23 01:56 METAR KRKD 230656Z AUTO 32009G16KT 10SM CLR 02/M03 A2984 RMK AO2 SLP105
                 T00221033 FZRANO =
2017-11-23 00:56 METAR KRKD 230556Z AUTO 30007KT 10SM CLR 03/M01 A2980 RMK AO2 SLP095 60004
                 T00281006 10050 20022 53022 =
2017-11-22 23:56 METAR KRKD 230456Z AUTO 30009G18KT 10SM OVC055 03/01 A2978 RMK AO2 SLP085
                 T00330006 401110028 =
2017-11-22 22:56 METAR KRKD 230356Z AUTO 31008KT 10SM OVC046 03/01 A2975 RMK AO2 RAE25 SLP077
                 P0000 T00330011 =
2017-11-22 22:21 METAR KRKD 230321Z AUTO 32009G15KT 300V020 10SM -RA FEW015 BKN042 BKN080 03/01
                 A2974 RMK AO2 P0000 =
2017-11-22 21:56 METAR KRKD 230256Z AUTO 32010G17KT 10SM -RA BKN013 OVC060 03/02 A2974 RMK AO2
                 SLP073 P0001 60004 T00280017 53001 =
2017-11-22 21:24 METAR KRKD 230224Z AUTO 31010G14KT 10SM -RA OVC013 03/02 A2975 RMK AO2 P0000 =
2017-11-22 20:56 METAR KRKD 230156Z AUTO 32008G14KT 280V360 10SM -RA OVC015 04/02 A2974 RMK AO2
                 SLP073 P0002 T00390022 =
2017-11-22 19:56 METAR KRKD 230056Z AUTO 34008G19KT 300V010 10SM -RA BKN013 OVC036 04/03 A2973
                 RMK AO2 SLP070 P0001 T00440028 =
2017-11-22 18:56 METAR KRKD 222356Z AUTO 34007G19KT 8SM -RA BKN011 OVC026 05/04 A2974 RMK AO2
                 SLP072 P0006 60070 T00500039 10100 20050 50002 =
2017-11-22 18:10 METAR KRKD 222310Z AUTO VRB05KT 10SM -RA FEW006 OVC020 07/06 A2974 RMK AO2 P0002
                 =
2017-11-22 17:56 METAR KRKD 222256Z AUTO VRB05KT 10SM RA SCT006 BKN014 OVC018 07/06 A2974 RMK AO2
                 SLP074 P0026 T00720056 =
2017-11-22 17:54 METAR KRKD 222254Z AUTO 35008KT 310V020 9SM RA BKN006 BKN012 OVC018 07/06 A2974
                 RMK AO2 CIG 002V009 P0026 =
2017-11-22 17:18 METAR KRKD 222218Z AUTO 04003KT 6SM RA BR OVC004 09/09 A2973 RMK AO2 CIG 003V009
                 P0004 =
2017-11-22 16:56 METAR KRKD 222156Z AUTO 07005KT 8SM RA BKN006 OVC009 09/09 A2973 RMK AO2 CIG
                 003V007 SLP070 P0012 T00940094 =
2017-11-22 15:56 METAR KRKD 222056Z AUTO 07005KT 5SM -RA BR OVC003 09/09 A2975 RMK AO2 SLP075
                 P0009 60026 T00940094 56023 =
2017-11-22 15:48 METAR KRKD 222048Z AUTO 06005KT 4SM -RA BR OVC003 09/09 A2975 RMK AO2 P0008 =
2017-11-22 14:56 METAR KRKD 221956Z AUTO 00000KT 4SM -RA BR BKN005 BKN010 OVC014 09/09 A2978 RMK
                 AO2 CIG 003V007 SLP088 P0007 T00940089 =
2017-11-22 14:47 METAR KRKD 221947Z AUTO 00000KT 4SM -RA BR BKN005 BKN012 OVC065 09/09 A2978 RMK
                 AO2 CIG 003V007 P0006 =
2017-11-22 14:31 METAR KRKD 221931Z AUTO 10003KT 4SM -RA BR FEW006 OVC060 09/09 A2980 RMK AO2
                 P0004 =
2017-11-22 13:56 METAR KRKD 221856Z AUTO 00000KT 3SM -RA BR OVC060 09/09 A2981 RMK AO2 SLP097
                 P0010 T00940089 =

Support USWX by starting your Amazon purchase here.